Terminal Aerodrome Forecast
Issued by NWS

Current Version | Previous Version | Text Only | Print | Product List | Glossary On
Versions: 1 2 3 4 5 6 7 8 9 10 11 12 13 14 15 16 17 18 19 20 21 22 23 24 25 26
674
FTUS42 KFFC 271354 AAB
TAFPDK
TAF AMD
KPDK 271354Z 2714/2812 00000KT P6SM FEW060 SCT070
     FM271700 25005KT P6SM SCT060 SCT250
      TEMPO 2720/2723 P6SM TSRA BKN040CB
     FM280100 23004KT P6SM FEW080=

USA.gov is the U.S. government's official web portal to all federal, state and local government web resources and services.